Time;durP1;ratioP1;P1;durP2;ratioP2;P2;SDS_P1;SDS_P2;PMS_P1;PMS_P2;Temp;Humidity;BMP_temperature;BMP_pressure;BME280_temperature;BME280_humidity;BME280_pressure;Samples;Min_cycle;Max_cycle;Signal;HPM_P1;HPM_P2
2022/11/12 00:00:52;;;;;;;8.83;5.23;;;9.10;99.90;;;;;;5027642;28;20213;-77
2022/11/12 00:03:18;;;;;;;7.97;5.70;;;9.10;99.90;;;;;;5026287;28;20280;-78
2022/11/12 00:05:44;;;;;;;9.97;5.10;;;9.00;99.90;;;;;;5030504;28;20606;-79
2022/11/12 00:08:10;;;;;;;9.67;5.53;;;9.10;99.90;;;;;;5034159;28;20212;-78
2022/11/12 00:10:35;;;;;;;9.87;5.77;;;9.10;99.90;;;;;;5030903;28;20266;-77
2022/11/12 00:13:01;;;;;;;7.73;5.40;;;9.00;99.90;;;;;;5031099;28;20213;-79
2022/11/12 00:15:27;;;;;;;10.20;5.00;;;9.00;99.90;;;;;;5028323;28;20267;-76
2022/11/12 00:17:52;;;;;;;10.13;5.30;;;9.00;99.90;;;;;;5031815;28;20582;-75
2022/11/12 00:20:18;;;;;;;6.43;4.97;;;9.00;99.90;;;;;;5030953;28;20200;-76
2022/11/12 00:22:44;;;;;;;9.97;5.60;;;9.00;99.90;;;;;;5007216;28;20215;-75
2022/11/12 00:25:09;;;;;;;9.33;5.37;;;9.00;99.90;;;;;;5026180;28;20213;-76
2022/11/12 00:27:35;;;;;;;8.30;5.10;;;9.00;99.90;;;;;;5030519;28;20212;-75
2022/11/12 00:30:02;;;;;;;8.47;5.30;;;9.00;99.90;;;;;;5022758;28;20654;-75
2022/11/12 00:32:28;;;;;;;9.07;4.83;;;8.90;99.90;;;;;;5031416;28;20208;-76
2022/11/12 00:34:53;;;;;;;8.93;5.33;;;8.90;99.90;;;;;;5028086;28;20205;-75
2022/11/12 00:37:19;;;;;;;8.97;5.60;;;9.00;99.90;;;;;;5025503;28;20730;-75
2022/11/12 00:39:45;;;;;;;6.87;4.70;;;8.90;99.90;;;;;;5020287;28;20219;-75
2022/11/12 00:42:11;;;;;;;6.53;4.37;;;8.90;99.90;;;;;;5029193;28;20188;-76
2022/11/12 00:44:37;;;;;;;8.27;5.30;;;8.90;99.90;;;;;;5025367;28;20184;-76
2022/11/12 00:47:02;;;;;;;7.57;4.53;;;8.90;99.90;;;;;;5031188;28;20213;-77
2022/11/12 00:49:28;;;;;;;7.47;4.87;;;8.90;99.90;;;;;;5032448;28;20267;-78
2022/11/12 00:51:54;;;;;;;10.17;4.80;;;8.90;99.90;;;;;;5024669;28;20231;-79
2022/11/12 00:54:19;;;;;;;6.13;4.17;;;8.90;99.90;;;;;;5025915;28;20580;-78
2022/11/12 00:56:46;;;;;;;7.50;4.03;;;8.90;99.90;;;;;;5023844;28;20200;-78
2022/11/12 00:59:12;;;;;;;7.17;4.07;;;8.90;99.90;;;;;;5027587;28;20243;-78
2022/11/12 01:01:38;;;;;;;8.57;4.10;;;8.90;99.90;;;;;;5029696;28;20636;-79
2022/11/12 01:04:04;;;;;;;8.90;4.00;;;8.90;99.90;;;;;;5025383;28;20547;-79
2022/11/12 01:06:30;;;;;;;6.30;3.83;;;8.90;99.90;;;;;;5033788;28;20212;-78
2022/11/12 01:08:56;;;;;;;6.03;3.70;;;8.90;99.90;;;;;;5026266;28;20205;-78
2022/11/12 01:11:25;;;;;;;9.10;4.20;;;8.90;99.90;;;;;;5025122;28;20208;-78
2022/11/12 01:13:56;;;;;;;7.47;4.00;;;8.90;99.90;;;;;;5027464;28;20338;-76
2022/11/12 01:16:25;;;;;;;8.93;4.40;;;8.90;99.90;;;;;;5030570;28;20212;-78
2022/11/12 01:18:56;;;;;;;7.17;4.07;;;8.90;99.90;;;;;;5024159;28;20238;-77
2022/11/12 01:21:24;;;;;;;5.50;3.90;;;8.90;99.90;;;;;;5025475;28;20187;-78
2022/11/12 01:23:50;;;;;;;6.03;3.70;;;8.90;99.90;;;;;;5054322;23;20697;-79
2022/11/12 01:26:18;;;;;;;7.60;4.00;;;8.90;99.90;;;;;;5034278;28;20199;-78
2022/11/12 01:28:44;;;;;;;7.63;3.80;;;8.90;99.90;;;;;;5035362;28;20690;-76
2022/11/12 01:31:20;;;;;;;8.17;4.10;;;8.90;99.90;;;;;;5033575;28;20215;-78
2022/11/12 01:33:48;;;;;;;6.50;3.47;;;8.90;99.90;;;;;;5041354;28;20219;-79
2022/11/12 01:36:16;;;;;;;7.97;3.97;;;8.80;99.90;;;;;;5051338;28;20255;-78
2022/11/12 01:38:43;;;;;;;8.20;3.90;;;8.90;99.90;;;;;;5030003;28;20203;-77
2022/11/12 01:41:12;;;;;;;6.93;3.30;;;8.80;99.90;;;;;;5050513;28;20206;-78
2022/11/12 01:43:38;;;;;;;5.73;3.80;;;8.80;99.90;;;;;;5050963;28;20215;-77
2022/11/12 01:46:13;;;;;;;5.53;3.53;;;8.80;99.90;;;;;;5032530;28;20245;-74
2022/11/12 01:48:54;;;;;;;6.73;3.73;;;8.80;99.90;;;;;;5029222;28;20203;-74
2022/11/12 01:51:23;;;;;;;8.67;4.23;;;8.80;99.90;;;;;;5046391;28;20182;-73
2022/11/12 01:53:53;;;;;;;5.50;3.60;;;8.80;99.90;;;;;;5038508;28;20227;-74
2022/11/12 01:56:22;;;;;;;5.47;3.87;;;8.80;99.90;;;;;;5040435;28;20282;-73
2022/11/12 01:58:52;;;;;;;7.83;3.77;;;8.80;99.90;;;;;;5027455;28;20713;-73
2022/11/12 02:01:18;;;;;;;5.83;3.27;;;8.70;99.90;;;;;;5047618;28;20285;-73
2022/11/12 02:03:44;;;;;;;7.93;3.80;;;8.70;99.90;;;;;;5047605;28;20212;-73
2022/11/12 02:06:12;;;;;;;4.83;3.43;;;8.70;99.90;;;;;;5025485;28;20168;-73
2022/11/12 02:08:39;;;;;;;6.33;3.70;;;8.80;99.90;;;;;;5047243;28;20237;-73
2022/11/12 02:11:17;;;;;;;6.03;3.63;;;8.80;99.90;;;;;;5050195;28;20666;-74
2022/11/12 02:13:56;;;;;;;6.40;3.93;;;8.70;99.90;;;;;;5036617;28;20263;-73
2022/11/12 02:16:28;;;;;;;6.10;3.50;;;8.70;99.90;;;;;;5030748;28;20218;-74
2022/11/12 02:18:54;;;;;;;8.23;3.27;;;8.70;99.90;;;;;;5038797;28;20580;-74
2022/11/12 02:21:21;;;;;;;8.17;3.90;;;8.70;99.90;;;;;;5038158;28;20183;-74
2022/11/12 02:24:22;;;;;;;6.30;3.77;;;8.70;99.90;;;;;;5039586;28;20215;-74
2022/11/12 02:26:52;;;;;;;6.60;3.53;;;8.70;99.90;;;;;;5038189;28;20211;-74
2022/11/12 02:29:17;;;;;;;7.43;3.83;;;8.70;99.90;;;;;;5047508;28;20203;-74
2022/11/12 02:31:43;;;;;;;5.00;3.07;;;8.70;99.90;;;;;;5050473;28;20241;-74
2022/11/12 02:34:08;;;;;;;6.03;3.60;;;8.70;99.90;;;;;;5050380;28;20203;-74
2022/11/12 02:36:34;;;;;;;7.00;2.73;;;8.70;99.90;;;;;;5041413;28;20215;-74
2022/11/12 02:39:00;;;;;;;5.77;2.80;;;8.70;99.90;;;;;;5039119;28;20184;-74
2022/11/12 02:41:26;;;;;;;6.20;3.57;;;8.60;99.90;;;;;;5035997;28;20208;-74
2022/11/12 02:43:52;;;;;;;4.07;2.97;;;8.60;99.90;;;;;;5038426;28;20207;-74
2022/11/12 02:46:17;;;;;;;4.70;3.10;;;8.60;99.90;;;;;;5028282;28;20204;-74
2022/11/12 02:48:43;;;;;;;5.43;2.90;;;8.60;99.90;;;;;;5030880;28;20195;-74
2022/11/12 02:51:10;;;;;;;5.60;3.50;;;8.60;99.90;;;;;;5039233;28;20183;-74
2022/11/12 02:53:35;;;;;;;5.53;3.37;;;8.70;99.90;;;;;;5040511;28;20200;-74
2022/11/12 02:56:01;;;;;;;6.57;2.67;;;8.60;99.90;;;;;;5044545;28;20204;-74
2022/11/12 02:58:27;;;;;;;6.97;3.37;;;8.60;99.90;;;;;;5049469;28;20242;-74
2022/11/12 03:00:54;;;;;;;5.17;2.93;;;8.60;99.90;;;;;;5040214;28;20199;-73
2022/11/12 03:03:20;;;;;;;6.27;2.63;;;8.60;99.90;;;;;;5049693;28;20570;-74
2022/11/12 03:05:53;;;;;;;5.43;2.43;;;8.60;99.90;;;;;;5049795;28;20196;-74
2022/11/12 03:08:18;;;;;;;5.07;2.87;;;8.60;99.90;;;;;;5046503;28;20195;-74
2022/11/12 03:10:44;;;;;;;5.30;2.70;;;8.50;99.90;;;;;;5050359;28;20572;-75
2022/11/12 03:13:10;;;;;;;5.20;2.90;;;8.50;99.90;;;;;;5049886;28;20203;-74
2022/11/12 03:15:36;;;;;;;7.97;2.90;;;8.60;99.90;;;;;;5049396;28;20735;-74
2022/11/12 03:18:02;;;;;;;4.97;3.07;;;8.50;99.90;;;;;;5048068;28;20195;-74
2022/11/12 03:20:28;;;;;;;6.13;2.53;;;8.60;99.90;;;;;;5045698;28;20692;-74
2022/11/12 03:23:01;;;;;;;6.43;3.13;;;8.50;99.90;;;;;;5031305;28;20211;-74
2022/11/12 03:25:27;;;;;;;6.07;3.50;;;8.50;99.90;;;;;;5032247;28;20216;-73
2022/11/12 03:28:05;;;;;;;6.80;2.30;;;8.50;99.90;;;;;;5031784;28;20203;-75
2022/11/12 03:30:33;;;;;;;6.63;2.90;;;8.50;99.90;;;;;;5035684;28;20699;-72
2022/11/12 03:32:59;;;;;;;3.97;2.60;;;8.50;99.90;;;;;;5046880;28;20211;-74
2022/11/12 03:35:25;;;;;;;4.37;2.80;;;8.50;99.90;;;;;;5040653;28;20502;-73
2022/11/12 03:37:51;;;;;;;4.77;2.73;;;8.50;99.90;;;;;;5030743;28;20223;-73
2022/11/12 03:40:18;;;;;;;9.47;3.00;;;8.40;99.90;;;;;;5045215;28;20204;-73
2022/11/12 03:42:49;;;;;;;4.20;2.80;;;8.40;99.90;;;;;;5049347;28;20222;-73
2022/11/12 03:45:15;;;;;;;4.60;2.67;;;8.40;99.90;;;;;;5029644;28;20631;-73
2022/11/12 03:47:43;;;;;;;5.13;2.47;;;8.40;99.90;;;;;;5032490;28;20191;-73
2022/11/12 03:50:10;;;;;;;5.80;2.80;;;8.40;99.90;;;;;;5047909;28;20211;-73
2022/11/12 03:52:37;;;;;;;6.53;3.20;;;8.40;99.90;;;;;;5049367;28;20214;-73
2022/11/12 03:55:04;;;;;;;6.03;3.20;;;8.40;99.90;;;;;;5045994;28;20291;-73
2022/11/12 03:57:29;;;;;;;4.30;3.23;;;8.30;99.90;;;;;;5049385;28;20207;-73
2022/11/12 03:59:55;;;;;;;5.30;3.10;;;8.30;99.90;;;;;;5049150;28;20547;-74
2022/11/12 04:02:21;;;;;;;7.07;3.20;;;8.30;99.90;;;;;;5046343;28;20861;-73
2022/11/12 04:10:14;;;;;;;7.20;3.03;;;8.20;99.90;;;;;;5048580;28;20250;-73
2022/11/12 04:15:24;;;;;;;4.13;2.57;;;8.20;99.90;;;;;;5050404;28;20174;-73
2022/11/12 04:23:32;;;;;;;6.03;2.67;;;8.20;99.90;;;;;;5009669;28;20219;-73
2022/11/12 04:30:14;;;;;;;4.07;2.70;;;8.10;99.90;;;;;;5048949;28;20230;-73
2022/11/12 04:31:28;;;;;;;5.13;3.03;;;8.10;99.90;;;;;;5051175;28;20598;-73
2022/11/12 04:33:54;;;;;;;4.93;3.03;;;8.10;99.90;;;;;;5032157;28;20286;-73
2022/11/12 04:36:19;;;;;;;5.77;2.90;;;8.10;99.90;;;;;;5052259;28;20176;-72
2022/11/12 04:38:45;;;;;;;5.10;3.10;;;8.10;99.90;;;;;;5052760;28;20192;-72
2022/11/12 04:46:39;;;;;;;3.90;2.83;;;8.00;99.90;;;;;;5049031;28;20210;-73
2022/11/12 04:49:05;;;;;;;7.67;3.27;;;8.10;99.90;;;;;;5025825;28;20203;-73
2022/11/12 04:54:15;;;;;;;4.43;3.10;;;8.00;99.90;;;;;;5048284;28;20240;-73
2022/11/12 04:56:40;;;;;;;5.23;3.00;;;8.00;99.90;;;;;;5048586;28;20173;-75
2022/11/12 04:59:06;;;;;;;5.97;3.33;;;8.00;99.90;;;;;;5050782;28;20707;-75
2022/11/12 05:01:31;;;;;;;5.83;3.67;;;8.00;99.90;;;;;;5048970;28;20287;-76
2022/11/12 05:03:57;;;;;;;4.43;2.83;;;8.00;99.90;;;;;;5046037;28;20200;-76
2022/11/12 05:09:07;;;;;;;7.23;2.87;;;7.90;99.90;;;;;;5047161;28;20676;-72
2022/11/12 05:11:32;;;;;;;8.53;3.67;;;7.90;99.90;;;;;;5051896;28;20207;-73
2022/11/12 05:13:58;;;;;;;4.80;3.07;;;7.90;99.90;;;;;;5050720;28;20236;-72
2022/11/12 05:16:23;;;;;;;6.93;3.30;;;7.90;99.90;;;;;;5031245;28;20208;-72
2022/11/12 05:18:49;;;;;;;6.80;3.57;;;7.90;99.90;;;;;;5030502;28;20232;-73
2022/11/12 05:23:59;;;;;;;6.57;3.17;;;7.80;99.90;;;;;;5046585;28;20227;-73
2022/11/12 05:26:24;;;;;;;5.30;3.40;;;7.80;99.90;;;;;;5051461;28;20200;-73
2022/11/12 05:28:50;;;;;;;4.70;2.90;;;7.80;99.90;;;;;;5044176;28;20234;-72
2022/11/12 05:31:16;;;;;;;6.83;3.93;;;7.80;99.90;;;;;;5050903;28;20673;-73
2022/11/12 05:33:41;;;;;;;7.00;3.40;;;7.70;99.90;;;;;;5047172;28;20208;-74
2022/11/12 05:36:07;;;;;;;6.33;3.30;;;7.70;99.90;;;;;;5027142;28;20241;-73
2022/11/12 05:38:33;;;;;;;6.67;3.20;;;7.70;99.90;;;;;;5029177;28;20219;-73
2022/11/12 05:40:58;;;;;;;8.13;3.40;;;7.70;99.90;;;;;;5050413;28;20226;-74
2022/11/12 05:43:24;;;;;;;5.33;3.30;;;7.70;99.90;;;;;;5042178;28;20705;-73
2022/11/12 05:45:49;;;;;;;6.13;3.57;;;7.70;99.90;;;;;;5045912;28;20199;-72
2022/11/12 05:48:15;;;;;;;5.50;3.13;;;7.60;99.90;;;;;;5040490;28;20207;-73
2022/11/12 05:50:41;;;;;;;5.10;3.10;;;7.70;99.90;;;;;;5033320;28;20198;-74
2022/11/12 05:53:06;;;;;;;7.73;3.70;;;7.60;99.90;;;;;;5042343;28;20290;-72
2022/11/12 05:55:32;;;;;;;4.60;3.40;;;7.60;99.90;;;;;;5027756;28;20210;-73
2022/11/12 05:57:57;;;;;;;6.47;3.40;;;7.60;99.90;;;;;;5033149;28;20740;-74
2022/11/12 06:00:23;;;;;;;6.30;3.37;;;7.60;99.90;;;;;;5039499;28;20263;-73
2022/11/12 06:02:48;;;;;;;7.43;3.70;;;7.60;99.90;;;;;;5030049;28;20188;-73
2022/11/12 06:05:14;;;;;;;6.13;3.43;;;7.60;99.90;;;;;;5041966;28;20211;-73
2022/11/12 06:07:40;;;;;;;8.67;3.20;;;7.60;99.90;;;;;;5033053;28;20234;-73
2022/11/12 06:10:06;;;;;;;6.77;3.23;;;7.60;99.90;;;;;;5042732;28;20282;-73
2022/11/12 06:12:31;;;;;;;5.80;3.03;;;7.60;99.90;;;;;;5028909;28;20223;-73
2022/11/12 06:14:57;;;;;;;4.13;3.20;;;7.60;99.90;;;;;;5049856;28;20218;-74
2022/11/12 06:17:23;;;;;;;6.97;3.53;;;7.60;99.90;;;;;;5029766;28;20199;-74
2022/11/12 06:19:48;;;;;;;7.40;3.90;;;7.70;99.90;;;;;;5042469;28;20243;-73
2022/11/12 06:22:14;;;;;;;4.50;3.07;;;7.70;99.90;;;;;;5037333;28;20250;-74
2022/11/12 06:24:39;;;;;;;9.33;4.03;;;7.70;99.90;;;;;;5046000;28;20226;-73
2022/11/12 06:27:05;;;;;;;5.63;4.10;;;7.60;99.90;;;;;;5042119;28;20589;-73
2022/11/12 06:29:30;;;;;;;7.27;4.03;;;7.70;99.90;;;;;;5022674;28;20197;-73
2022/11/12 06:31:56;;;;;;;5.83;3.50;;;7.70;99.90;;;;;;5043349;28;20606;-73
2022/11/12 06:34:21;;;;;;;7.47;3.57;;;7.70;99.90;;;;;;5038988;28;20200;-73
2022/11/12 06:36:48;;;;;;;6.37;3.90;;;7.70;99.90;;;;;;5024870;28;20206;-73
2022/11/12 06:39:13;;;;;;;9.63;3.80;;;7.80;99.90;;;;;;5041760;28;20274;-73
2022/11/12 06:41:39;;;;;;;6.13;3.40;;;7.80;99.90;;;;;;5030414;28;20655;-73
2022/11/12 06:44:05;;;;;;;7.40;4.13;;;7.80;99.90;;;;;;5046504;28;20207;-74
2022/11/12 06:46:30;;;;;;;6.47;3.63;;;7.90;99.90;;;;;;5028458;28;20195;-74
2022/11/12 06:48:56;;;;;;;11.87;4.13;;;7.80;99.90;;;;;;5041771;28;20203;-73
2022/11/12 06:51:21;;;;;;;6.47;3.90;;;7.90;99.90;;;;;;5041465;28;20203;-74
2022/11/12 06:53:47;;;;;;;12.77;3.90;;;8.00;99.90;;;;;;5041070;28;20191;-75
2022/11/12 06:56:13;;;;;;;8.07;4.37;;;8.10;99.90;;;;;;5025459;28;20196;-74
2022/11/12 06:58:39;;;;;;;9.70;4.00;;;8.10;99.90;;;;;;5042058;28;20251;-74
2022/11/12 07:01:11;;;;;;;9.80;4.13;;;8.10;99.90;;;;;;5036677;28;20207;-74
2022/11/12 07:03:38;;;;;;;6.20;3.80;;;8.20;99.90;;;;;;5041700;28;20209;-74
2022/11/12 07:06:05;;;;;;;6.03;4.17;;;8.30;99.90;;;;;;5042054;28;20176;-74
2022/11/12 07:08:31;;;;;;;7.20;4.07;;;8.40;99.90;;;;;;5029371;28;20700;-74
2022/11/12 07:10:57;;;;;;;7.87;4.17;;;8.90;99.90;;;;;;5032169;28;20219;-74
2022/11/12 07:13:23;;;;;;;9.40;4.00;;;9.70;99.90;;;;;;5041566;28;20218;-75
2022/11/12 07:15:48;;;;;;;7.30;4.17;;;10.50;99.90;;;;;;5028552;28;20207;-73
2022/11/12 07:18:14;;;;;;;9.80;3.90;;;10.60;99.90;;;;;;5030172;28;20286;-74
2022/11/12 07:20:39;;;;;;;6.50;3.93;;;11.00;99.90;;;;;;5042085;28;20191;-73
2022/11/12 07:23:05;;;;;;;9.30;4.47;;;11.80;99.90;;;;;;5040263;28;20289;-73
2022/11/12 07:25:31;;;;;;;6.03;4.03;;;12.30;99.90;;;;;;5040071;28;20219;-76
2022/11/12 07:27:56;;;;;;;5.47;3.53;;;12.40;99.90;;;;;;5041025;28;20277;-77
2022/11/12 07:30:22;;;;;;;8.73;4.77;;;12.80;99.90;;;;;;5040995;28;20186;-77
2022/11/12 07:32:47;;;;;;;6.93;4.05;;;13.20;99.90;;;;;;5039637;28;20177;-76
2022/11/12 07:35:13;;;;;;;8.65;4.68;;;13.50;99.90;;;;;;5039266;28;20210;-76
2022/11/12 07:37:38;;;;;;;5.80;4.13;;;13.90;99.90;;;;;;5041416;28;20208;-75
2022/11/12 07:40:05;;;;;;;6.03;3.60;;;14.00;99.90;;;;;;5040545;28;20216;-75
2022/11/12 07:42:34;;;;;;;5.25;4.50;;;14.00;99.90;;;;;;5038344;28;20208;-73
2022/11/12 07:45:00;;;;;;;6.65;4.25;;;14.00;99.90;;;;;;5043475;28;20177;-74
2022/11/12 07:47:26;;;;;;;6.53;3.70;;;14.20;99.90;;;;;;5032405;28;20563;-75
2022/11/12 07:49:52;;;;;;;4.57;3.78;;;14.30;99.90;;;;;;5031303;28;20207;-75
2022/11/12 07:52:17;;;;;;;9.50;4.53;;;14.30;99.90;;;;;;5029255;28;20203;-75
2022/11/12 07:54:43;;;;;;;6.47;4.40;;;13.90;99.90;;;;;;5029367;28;20299;-75
2022/11/12 07:57:08;;;;;;;6.93;4.45;;;14.10;99.90;;;;;;5028940;28;20172;-74
2022/11/12 07:59:34;;;;;;;6.82;3.83;;;13.80;99.90;;;;;;5048876;28;20685;-75
2022/11/12 08:02:00;;;;;;;4.85;4.10;;;13.20;99.90;;;;;;5042117;28;20199;-75
2022/11/12 08:04:25;;;;;;;10.20;4.60;;;12.90;99.90;;;;;;5031954;28;20305;-75
2022/11/12 08:06:51;;;;;;;6.80;4.22;;;12.70;99.90;;;;;;5046957;28;20222;-75
2022/11/12 08:09:17;;;;;;;6.65;3.95;;;12.60;99.90;;;;;;5043984;28;20259;-74
2022/11/12 08:11:42;;;;;;;8.73;4.78;;;12.80;99.90;;;;;;5043151;28;20176;-75
2022/11/12 08:14:08;;;;;;;14.70;4.72;;;13.00;99.90;;;;;;5046626;28;20224;-75
2022/11/12 08:16:34;;;;;;;6.78;4.30;;;13.10;99.90;;;;;;5043635;28;20208;-75
2022/11/12 08:19:00;;;;;;;7.60;4.88;;;13.20;99.90;;;;;;5045002;28;20228;-75
2022/11/12 08:21:25;;;;;;;11.18;4.57;;;13.20;99.90;;;;;;5033679;28;20210;-75
2022/11/12 08:23:52;;;;;;;6.55;4.57;;;13.20;99.90;;;;;;5042754;28;20695;-75
2022/11/12 08:26:19;;;;;;;8.10;4.47;;;13.30;99.90;;;;;;5043964;28;20216;-75
2022/11/12 08:28:45;;;;;;;7.15;5.07;;;13.40;99.90;;;;;;5042413;28;20208;-75
2022/11/12 08:31:13;;;;;;;7.53;4.68;;;13.50;99.90;;;;;;5048283;28;20191;-75
2022/11/12 08:33:40;;;;;;;8.30;4.03;;;13.40;99.90;;;;;;5029606;28;20273;-74
2022/11/12 08:36:08;;;;;;;6.38;4.40;;;13.40;99.90;;;;;;5043531;28;20190;-75
2022/11/12 08:38:34;;;;;;;7.97;4.95;;;13.50;99.90;;;;;;5028301;28;20719;-74
2022/11/12 08:41:06;;;;;;;8.43;5.22;;;13.70;99.90;;;;;;5042129;28;20223;-75
2022/11/12 08:43:31;;;;;;;7.03;4.93;;;13.90;99.90;;;;;;5044872;28;20223;-75
2022/11/12 08:45:58;;;;;;;6.88;5.03;;;13.80;99.90;;;;;;5035544;28;20226;-75
2022/11/12 08:48:25;;;;;;;9.82;5.53;;;13.70;99.90;;;;;;5043396;28;20184;-75
2022/11/12 08:50:51;;;;;;;14.40;6.50;;;13.70;99.90;;;;;;5048152;28;20637;-75
2022/11/12 08:53:16;;;;;;;12.43;6.00;;;13.90;99.90;;;;;;5043639;28;20220;-75
2022/11/12 08:55:42;;;;;;;8.80;5.45;;;13.70;99.90;;;;;;5044090;28;20311;-75
2022/11/12 08:58:09;;;;;;;9.40;5.70;;;13.80;99.90;;;;;;5034254;28;20227;-74
2022/11/12 09:00:41;;;;;;;12.40;6.03;;;13.90;99.90;;;;;;5043447;28;20238;-75
2022/11/12 09:03:13;;;;;;;10.68;5.90;;;14.00;99.90;;;;;;5045103;28;20673;-75
2022/11/12 09:05:39;;;;;;;11.98;7.40;;;14.00;99.90;;;;;;5043717;28;20207;-75
2022/11/12 09:08:08;;;;;;;11.40;6.63;;;13.80;99.90;;;;;;5042765;28;20284;-75
2022/11/12 09:10:35;;;;;;;13.70;7.97;;;13.80;99.90;;;;;;5028390;28;20682;-75
2022/11/12 09:13:01;;;;;;;12.27;7.65;;;13.90;99.90;;;;;;5043781;28;20701;-75
2022/11/12 09:15:28;;;;;;;14.02;8.20;;;14.10;99.90;;;;;;5046160;28;20208;-75
2022/11/12 09:17:59;;;;;;;16.77;8.63;;;14.40;99.90;;;;;;5027001;28;20266;-74
2022/11/12 09:20:27;;;;;;;14.73;9.02;;;14.40;99.90;;;;;;5043177;28;20204;-75
2022/11/12 09:22:53;;;;;;;12.75;7.78;;;14.30;99.90;;;;;;5031964;28;20357;-76
2022/11/12 09:25:19;;;;;;;15.50;9.57;;;14.30;99.90;;;;;;5029957;28;20580;-75
2022/11/12 09:27:44;;;;;;;16.92;9.77;;;14.30;99.90;;;;;;5043751;28;20204;-75
2022/11/12 09:30:10;;;;;;;16.63;9.68;;;14.40;99.90;;;;;;5031919;28;20520;-76
2022/11/12 09:32:36;;;;;;;17.77;9.50;;;14.40;99.90;;;;;;5043641;28;20196;-76
2022/11/12 09:35:02;;;;;;;14.18;8.32;;;14.50;99.90;;;;;;5046043;28;20262;-75
2022/11/12 09:37:28;;;;;;;17.05;9.88;;;14.60;99.90;;;;;;5040142;28;20255;-76
2022/11/12 09:39:53;;;;;;;18.77;10.57;;;14.70;99.90;;;;;;5032252;28;20596;-76
2022/11/12 09:42:21;;;;;;;16.45;10.02;;;14.90;99.90;;;;;;5044773;28;20267;-76
2022/11/12 09:45:00;;;;;;;17.73;10.73;;;15.20;99.90;;;;;;5046819;28;20227;-76
2022/11/12 09:47:32;;;;;;;17.92;10.23;;;15.20;99.90;;;;;;5028610;28;20720;-76
2022/11/12 09:50:32;;;;;;;18.40;10.85;;;15.20;99.90;;;;;;5042228;28;20733;-76
2022/11/12 09:53:12;;;;;;;17.45;10.82;;;15.40;99.90;;;;;;5032195;28;20270;-76
2022/11/12 09:55:42;;;;;;;16.98;9.98;;;15.50;99.90;;;;;;5043224;28;20243;-76
2022/11/12 09:58:12;;;;;;;18.27;10.68;;;15.50;99.90;;;;;;5043132;28;20283;-77
2022/11/12 10:00:40;;;;;;;17.35;10.02;;;15.60;99.90;;;;;;5043801;28;20216;-75
2022/11/12 10:03:17;;;;;;;16.25;10.13;;;15.70;99.90;;;;;;5044346;28;20204;-75
2022/11/12 10:05:49;;;;;;;17.17;9.80;;;15.70;99.90;;;;;;5042506;28;20814;-75
2022/11/12 10:08:33;;;;;;;16.70;9.77;;;15.80;99.90;;;;;;5044577;28;20209;-75
2022/11/12 10:10:59;;;;;;;18.42;10.02;;;15.90;99.90;;;;;;5037885;28;20569;-75
2022/11/12 10:13:46;;;;;;;18.17;10.25;;;15.50;99.90;;;;;;5046270;28;20214;-75
2022/11/12 10:16:42;;;;;;;18.60;10.18;;;15.20;99.90;;;;;;5041910;28;20219;-75
2022/11/12 10:19:20;;;;;;;21.35;11.23;;;15.00;99.90;;;;;;5042431;28;20365;-75
2022/11/12 10:22:03;;;;;;;20.48;12.23;;;14.90;99.90;;;;;;5044831;28;20215;-75
2022/11/12 10:24:35;;;;;;;25.60;12.55;;;14.90;99.90;;;;;;5030154;28;20227;-76
2022/11/12 10:27:12;;;;;;;27.20;13.27;;;14.90;99.90;;;;;;5041977;28;20183;-76
2022/11/12 10:29:51;;;;;;;24.15;11.98;;;14.80;99.90;;;;;;5029253;28;20218;-75
2022/11/12 10:32:16;;;;;;;20.35;11.82;;;14.80;99.90;;;;;;5043938;28;20220;-76
2022/11/12 10:34:42;;;;;;;23.70;12.13;;;14.80;99.90;;;;;;5041982;28;20808;-76
2022/11/12 10:37:20;;;;;;;23.38;13.40;;;14.90;99.90;;;;;;5029108;28;20204;-74
2022/11/12 10:39:47;;;;;;;19.60;11.93;;;14.80;99.90;;;;;;5036700;28;20737;-76
2022/11/12 10:42:15;;;;;;;22.95;12.55;;;14.90;99.90;;;;;;5041783;28;20239;-74
2022/11/12 10:44:42;;;;;;;20.85;11.95;;;14.90;99.90;;;;;;5044230;28;20933;-75
2022/11/12 10:47:30;;;;;;;19.88;12.52;;;14.80;99.90;;;;;;5043059;28;20302;-74
2022/11/12 10:50:08;;;;;;;18.98;11.82;;;15.00;99.90;;;;;;5024065;28;20203;-75
2022/11/12 10:52:34;;;;;;;24.30;13.07;;;15.10;99.90;;;;;;5040566;28;20219;-76
2022/11/12 10:55:04;;;;;;;26.10;12.50;;;15.10;99.90;;;;;;5029047;28;20207;-75
2022/11/12 10:57:29;;;;;;;20.73;12.57;;;15.10;99.90;;;;;;5046629;28;20219;-75
2022/11/12 11:00:17;;;;;;;22.27;11.77;;;15.20;99.90;;;;;;5024728;28;20230;-74
2022/11/12 11:03:06;;;;;;;19.40;9.98;;;15.20;99.90;;;;;;5023385;28;20645;-76
2022/11/12 11:05:47;;;;;;;17.80;10.02;;;15.20;99.90;;;;;;5046011;28;20208;-75
2022/11/12 11:08:12;;;;;;;24.40;10.30;;;15.10;99.90;;;;;;5039920;28;20216;-76
2022/11/12 11:10:38;;;;;;;16.85;8.43;;;15.20;99.90;;;;;;5029552;28;20203;-76
2022/11/12 11:13:20;;;;;;;16.90;7.93;;;15.40;99.90;;;;;;5045587;28;20294;-75
2022/11/12 11:16:01;;;;;;;15.60;8.02;;;15.40;99.90;;;;;;5040901;28;20208;-75
2022/11/12 11:18:29;;;;;;;13.75;7.55;;;15.60;99.90;;;;;;5041375;28;20586;-75
2022/11/12 11:21:36;;;;;;;26.25;14.20;;;15.50;99.90;;;;;;5042647;28;20176;-75
2022/11/12 11:24:20;;;;;;;16.88;9.60;;;15.40;99.90;;;;;;5026906;28;20277;-75
2022/11/12 11:26:57;;;;;;;12.77;8.55;;;15.20;99.90;;;;;;5048550;28;20204;-75
2022/11/12 11:29:31;;;;;;;12.27;7.32;;;15.10;99.90;;;;;;5044961;28;20211;-75
2022/11/12 11:32:15;;;;;;;11.57;7.15;;;15.10;99.90;;;;;;5025970;28;20282;-75
2022/11/12 11:35:12;;;;;;;14.43;7.38;;;15.10;99.90;;;;;;5041917;28;20593;-76
2022/11/12 11:38:09;;;;;;;14.48;6.80;;;15.10;99.90;;;;;;5045675;28;20208;-76
2022/11/12 11:40:41;;;;;;;16.40;9.45;;;15.00;99.90;;;;;;5020473;28;20586;-75
2022/11/12 11:43:21;;;;;;;11.98;6.93;;;14.90;99.90;;;;;;5043486;28;20236;-73
2022/11/12 11:45:59;;;;;;;15.43;8.77;;;14.90;99.90;;;;;;5026583;28;20231;-75
2022/11/12 11:48:54;;;;;;;16.60;9.23;;;14.70;99.90;;;;;;5033123;28;20171;-75
2022/11/12 11:51:53;;;;;;;13.65;7.75;;;14.60;99.90;;;;;;5044657;28;20663;-75
2022/11/12 11:54:30;;;;;;;14.15;7.13;;;14.40;99.90;;;;;;5025822;28;20243;-75
2022/11/12 11:57:00;;;;;;;12.65;6.90;;;14.20;99.90;;;;;;5048004;28;20178;-75
2022/11/12 11:59:56;;;;;;;12.05;7.18;;;14.30;99.90;;;;;;5045691;28;20266;-75
2022/11/12 12:02:45;;;;;;;15.35;7.78;;;14.40;99.90;;;;;;5045641;28;20219;-74
2022/11/12 12:05:35;;;;;;;17.67;8.38;;;14.50;99.90;;;;;;5044721;28;20200;-75
2022/11/12 12:08:08;;;;;;;14.02;7.65;;;14.60;99.90;;;;;;5043439;28;20205;-76
2022/11/12 12:10:55;;;;;;;16.23;7.93;;;14.70;99.90;;;;;;5045916;28;20240;-75
2022/11/12 12:13:29;;;;;;;13.00;7.32;;;14.60;99.90;;;;;;5045689;28;20884;-76
2022/11/12 12:16:21;;;;;;;15.50;7.82;;;14.70;99.90;;;;;;5043018;28;20259;-75
2022/11/12 12:19:21;;;;;;;15.68;8.43;;;14.80;99.90;;;;;;5047010;28;20315;-75
2022/11/12 12:21:49;;;;;;;16.45;8.90;;;14.90;99.90;;;;;;5047218;28;20326;-75
2022/11/12 12:24:42;;;;;;;15.93;9.38;;;14.90;99.90;;;;;;5046054;28;20215;-75
2022/11/12 12:27:18;;;;;;;15.15;8.73;;;14.90;99.90;;;;;;5028060;28;20195;-74
2022/11/12 12:29:49;;;;;;;14.75;9.55;;;14.90;99.90;;;;;;5048148;28;20685;-75
2022/11/12 12:32:36;;;;;;;16.55;9.60;;;14.90;99.90;;;;;;5031392;28;20215;-75
2022/11/12 12:35:12;;;;;;;15.15;8.50;;;14.80;99.90;;;;;;5043779;28;20242;-81
2022/11/12 12:37:52;;;;;;;17.13;8.40;;;14.70;99.90;;;;;;5024948;28;20287;-80
2022/11/12 12:40:50;;;;;;;16.55;8.82;;;14.70;99.90;;;;;;5047317;28;20694;-78
2022/11/12 12:43:35;;;;;;;16.08;8.32;;;14.70;99.90;;;;;;5013232;28;20236;-81
2022/11/12 12:46:03;;;;;;;15.55;8.45;;;14.50;99.90;;;;;;5048024;28;20204;-81
2022/11/12 12:48:39;;;;;;;14.95;8.35;;;14.60;99.90;;;;;;5034512;28;20223;-82
2022/11/12 12:51:05;;;;;;;13.77;7.97;;;14.60;99.90;;;;;;5030072;28;20234;-81
2022/11/12 12:53:33;;;;;;;16.73;8.43;;;14.50;99.90;;;;;;5046726;28;20207;-81
2022/11/12 12:56:02;;;;;;;16.10;7.97;;;14.30;99.90;;;;;;5029062;28;21505;-82
2022/11/12 12:58:30;;;;;;;19.55;9.18;;;14.30;99.90;;;;;;5048104;28;20213;-79
2022/11/12 13:01:02;;;;;;;16.38;8.27;;;14.30;99.90;;;;;;5045786;28;20210;-81
2022/11/12 13:03:45;;;;;;;14.55;7.65;;;14.30;99.90;;;;;;5043374;28;20204;-81
2022/11/12 13:06:22;;;;;;;15.77;8.27;;;14.30;99.90;;;;;;5043994;28;20250;-80
2022/11/12 13:08:53;;;;;;;13.98;8.32;;;14.20;99.90;;;;;;5047985;28;20231;-81
2022/11/12 13:14:34;;;;;;;16.58;7.88;;;14.00;99.90;;;;;;5043217;28;20214;-81
2022/11/12 13:17:09;;;;;;;16.77;8.77;;;14.00;99.90;;;;;;5045756;28;20716;-80
2022/11/12 13:19:42;;;;;;;14.55;8.10;;;13.90;99.90;;;;;;5035969;28;20242;-78
2022/11/12 13:22:17;;;;;;;15.00;8.68;;;13.90;99.90;;;;;;5033135;28;20214;-78
2022/11/12 13:27:39;;;;;;;15.48;9.85;;;13.90;99.90;;;;;;5017449;28;20221;-80
2022/11/12 13:30:28;;;;;;;21.08;9.40;;;13.80;99.90;;;;;;5014733;28;20718;-78
2022/11/12 13:32:55;;;;;;;21.73;10.00;;;13.90;99.90;;;;;;5019342;28;20563;-80
2022/11/12 13:35:25;;;;;;;17.52;9.73;;;13.90;99.90;;;;;;5017819;28;20275;-80
2022/11/12 13:38:10;;;;;;;17.17;9.35;;;13.80;99.90;;;;;;5015727;28;20275;-79